createdAt,value
2023-01-12T00:00:28.864Z,-2.85
2023-01-12T00:03:34.311Z,-2.84
2023-01-12T00:06:39.390Z,-2.78
2023-01-12T00:09:44.891Z,-2.69
2023-01-12T00:12:52.999Z,-2.66
2023-01-12T00:16:17.658Z,-2.60
2023-01-12T00:19:33.854Z,-2.53
2023-01-12T00:22:42.014Z,-2.49
2023-01-12T00:25:48.162Z,-2.48
2023-01-12T00:28:54.655Z,-2.45
2023-01-12T00:32:01.385Z,-2.44
2023-01-12T00:35:09.786Z,-2.49
2023-01-12T00:38:16.152Z,-2.57
2023-01-12T00:41:42.971Z,-2.63
2023-01-12T00:45:08.601Z,-2.68
2023-01-12T00:48:14.750Z,-2.79
2023-01-12T00:51:20.717Z,-2.83
2023-01-12T00:54:27.378Z,-2.83
2023-01-12T00:57:33.490Z,-2.92
2023-01-12T01:00:39.008Z,-2.98
2023-01-12T01:03:45.232Z,-2.92
2023-01-12T01:06:54.654Z,-2.93
2023-01-12T01:10:00.609Z,-2.99
2023-01-12T01:13:06.913Z,-3.04
2023-01-12T01:16:17.264Z,-2.99
2023-01-12T01:19:24.159Z,-2.92
2023-01-12T01:22:30.022Z,-2.81
2023-01-12T01:25:34.914Z,-2.74
2023-01-12T01:28:40.447Z,-2.69
2023-01-12T01:31:46.376Z,-2.65
2023-01-12T01:34:53.229Z,-2.62
2023-01-12T01:38:00.302Z,-2.62
2023-01-12T01:41:06.569Z,-2.55
2023-01-12T01:44:14.736Z,-2.57
2023-01-12T01:47:22.793Z,-2.58
2023-01-12T01:50:33.140Z,-2.65
2023-01-12T01:53:39.918Z,-2.70
2023-01-12T01:56:45.023Z,-2.72
2023-01-12T01:59:51.211Z,-2.72
2023-01-12T02:02:56.918Z,-2.77
2023-01-12T02:06:02.598Z,-2.84
2023-01-12T02:09:26.379Z,-2.89
2023-01-12T02:12:49.784Z,-2.90
2023-01-12T02:16:32.183Z,-2.98
2023-01-12T02:20:13.863Z,-2.99
2023-01-12T02:23:51.741Z,-2.88
2023-01-12T02:27:41.933Z,-2.89
2023-01-12T02:31:37.706Z,-2.98
2023-01-12T02:34:55.251Z,-3.08
2023-01-12T02:38:33.387Z,-3.00
2023-01-12T02:42:15.195Z,-2.89
2023-01-12T02:45:34.394Z,-2.75
2023-01-12T02:49:11.374Z,-2.71
2023-01-12T02:52:21.983Z,-2.81
2023-01-12T02:55:28.121Z,-2.95
2023-01-12T02:58:34.054Z,-3.05
2023-01-12T03:01:42.519Z,-3.13
2023-01-12T03:04:49.771Z,-3.21
2023-01-12T03:08:11.476Z,-3.21
2023-01-12T03:11:29.733Z,-3.18
2023-01-12T03:14:35.054Z,-3.20
2023-01-12T03:17:47.198Z,-3.22
2023-01-12T03:21:00.293Z,-3.14
2023-01-12T03:24:14.272Z,-3.04
2023-01-12T03:27:28.884Z,-2.99
2023-01-12T03:30:52.310Z,-2.97
2023-01-12T03:33:59.867Z,-2.87
2023-01-12T03:37:27.963Z,-2.83
2023-01-12T03:40:48.014Z,-2.91
2023-01-12T03:43:57.636Z,-3.02
2023-01-12T03:47:12.151Z,-3.13
2023-01-12T03:50:31.215Z,-3.22
2023-01-12T03:53:38.091Z,-3.14
2023-01-12T03:56:46.152Z,-3.03
2023-01-12T03:59:52.286Z,-2.91
2023-01-12T04:02:59.364Z,-2.85
2023-01-12T04:06:05.124Z,-2.77
2023-01-12T04:09:10.891Z,-2.74
2023-01-12T04:12:17.632Z,-2.79
2023-01-12T04:15:24.660Z,-2.92
2023-01-12T04:18:29.453Z,-3.02
2023-01-12T04:21:52.249Z,-2.97
2023-01-12T04:24:58.364Z,-2.88
2023-01-12T04:28:10.748Z,-2.80
2023-01-12T04:31:17.348Z,-2.72
2023-01-12T04:34:22.663Z,-2.62
2023-01-12T04:37:28.131Z,-2.58
2023-01-12T04:40:33.719Z,-2.53
2023-01-12T04:43:40.166Z,-2.54
2023-01-12T04:46:46.529Z,-2.56
2023-01-12T04:49:52.135Z,-2.55
2023-01-12T04:52:57.827Z,-2.62
2023-01-12T04:56:02.971Z,-2.81
2023-01-12T04:59:13.743Z,-2.89
2023-01-12T05:02:19.604Z,-2.89
2023-01-12T05:05:24.389Z,-2.82
2023-01-12T05:08:47.848Z,-2.77
2023-01-12T05:11:53.280Z,-2.82
2023-01-12T05:14:59.426Z,-2.78
2023-01-12T05:18:05.973Z,-2.86
2023-01-12T05:21:12.794Z,-2.90
2023-01-12T05:24:18.623Z,-2.89
2023-01-12T05:27:25.198Z,-2.95
2023-01-12T05:30:33.263Z,-2.92
2023-01-12T05:33:39.190Z,-2.78
2023-01-12T05:36:45.149Z,-2.66
2023-01-12T05:39:50.301Z,-2.69
2023-01-12T05:43:14.403Z,-2.66
2023-01-12T05:46:20.157Z,-2.69
2023-01-12T05:49:27.089Z,-2.79
2023-01-12T05:52:32.577Z,-2.88
2023-01-12T05:55:39.757Z,-2.81
2023-01-12T05:58:46.562Z,-2.73
2023-01-12T06:01:52.047Z,-2.68
2023-01-12T06:04:59.221Z,-2.59
2023-01-12T06:08:08.727Z,-2.56
2023-01-12T06:11:24.080Z,-2.51
2023-01-12T06:14:30.467Z,-2.58
2023-01-12T06:17:29.527Z,-2.68
2023-01-12T06:20:35.457Z,-2.67
2023-01-12T06:23:40.927Z,-2.68
2023-01-12T06:26:46.917Z,-2.66
2023-01-12T06:29:53.132Z,-2.59
2023-01-12T06:33:10.199Z,-2.61
2023-01-12T06:36:17.811Z,-2.66
2023-01-12T06:39:27.762Z,-2.68
2023-01-12T06:42:36.294Z,-2.69
2023-01-12T06:45:41.755Z,-2.71
2023-01-12T06:48:47.022Z,-2.77
2023-01-12T06:51:52.182Z,-2.80
2023-01-12T06:55:01.860Z,-2.72
2023-01-12T06:58:08.079Z,-2.67
2023-01-12T07:01:20.403Z,-2.61
2023-01-12T07:04:28.787Z,-2.57
2023-01-12T07:07:37.299Z,-2.56
2023-01-12T07:10:45.588Z,-2.49
2023-01-12T07:14:09.308Z,-2.39
2023-01-12T07:17:15.637Z,-2.35
2023-01-12T07:20:24.428Z,-2.37
2023-01-12T07:23:31.649Z,-2.49
2023-01-12T07:26:39.012Z,-2.47
2023-01-12T07:29:46.540Z,-2.49
2023-01-12T07:32:55.578Z,-2.63
2023-01-12T07:36:01.683Z,-2.62
2023-01-12T07:39:07.467Z,-2.62
2023-01-12T07:42:33.491Z,-2.66
2023-01-12T07:45:50.580Z,-2.69
2023-01-12T07:49:02.755Z,-2.65
2023-01-12T07:52:11.127Z,-2.68
2023-01-12T07:55:20.736Z,-2.64
2023-01-12T07:58:28.856Z,-2.64
2023-01-12T08:01:35.283Z,-2.58
2023-01-12T08:04:42.973Z,-2.55
2023-01-12T08:08:04.053Z,-2.51
2023-01-12T08:11:19.158Z,-2.53
2023-01-12T08:14:24.987Z,-2.52
2023-01-12T08:17:36.456Z,-2.51
2023-01-12T08:20:46.011Z,-2.37
2023-01-12T08:23:58.923Z,-2.27
2023-01-12T08:27:05.949Z,-2.13
2023-01-12T08:30:15.089Z,-2.07
2023-01-12T08:33:22.607Z,-2.16
2023-01-12T08:36:29.030Z,-2.21
2023-01-12T08:39:37.912Z,-2.20
2023-01-12T08:42:44.181Z,-2.15
2023-01-12T08:45:50.091Z,-2.08
2023-01-12T08:48:56.008Z,-2.02
2023-01-12T08:52:03.050Z,-1.97
2023-01-12T08:55:09.157Z,-2.02
2023-01-12T08:58:16.341Z,-2.06
2023-01-12T09:01:27.122Z,-1.99
2023-01-12T09:04:33.094Z,-1.96
2023-01-12T09:07:40.858Z,-1.96
2023-01-12T09:10:46.747Z,-1.91
2023-01-12T09:13:52.943Z,-1.81
2023-01-12T09:16:59.597Z,-1.75
2023-01-12T09:20:05.529Z,-1.66
2023-01-12T09:23:05.411Z,-1.64
2023-01-12T09:26:12.473Z,-1.66
2023-01-12T09:29:19.261Z,-1.61
2023-01-12T09:32:29.160Z,-1.63
2023-01-12T09:35:33.012Z,-1.65
2023-01-12T09:38:40.551Z,-1.59
2023-01-12T09:42:09.577Z,-1.52
2023-01-12T09:45:34.041Z,-1.43
2023-01-12T09:48:39.805Z,-1.36
2023-01-12T09:51:54.369Z,-1.29
2023-01-12T09:55:25.165Z,-1.30
2023-01-12T09:58:56.192Z,-1.45
2023-01-12T10:02:03.493Z,-1.42
2023-01-12T10:05:09.077Z,-1.49
2023-01-12T10:08:17.427Z,-1.38
2023-01-12T10:11:43.411Z,-1.27
2023-01-12T10:15:03.228Z,-1.19
2023-01-12T10:18:25.663Z,-1.12
2023-01-12T10:21:31.093Z,-1.09
2023-01-12T10:24:43.382Z,-1.08
2023-01-12T10:27:52.047Z,-1.05
2023-01-12T10:30:59.876Z,-1.02
2023-01-12T10:34:23.732Z,-1.02
2023-01-12T10:37:28.849Z,-0.99
2023-01-12T10:40:45.527Z,-0.94
2023-01-12T10:43:53.455Z,-0.96
2023-01-12T10:46:59.956Z,-0.96
2023-01-12T10:50:12.280Z,-0.94
2023-01-12T10:53:22.550Z,-0.94
2023-01-12T11:00:39.910Z,-1.12
2023-01-12T11:03:51.704Z,-1.29
2023-01-12T11:06:58.835Z,-1.36
2023-01-12T11:10:07.339Z,-1.41
2023-01-12T11:13:16.093Z,-1.54
2023-01-12T11:16:37.544Z,-1.50
2023-01-12T11:19:52.301Z,-1.41
2023-01-12T11:22:59.073Z,-1.48
2023-01-12T11:26:05.484Z,-1.54
2023-01-12T11:29:17.343Z,-1.45
2023-01-12T11:32:34.158Z,-1.40
2023-01-12T11:35:51.153Z,-1.24
2023-01-12T11:39:01.587Z,-1.11
2023-01-12T11:42:30.105Z,-1.06
2023-01-12T11:45:49.984Z,-1.10
2023-01-12T11:49:29.281Z,-1.05
2023-01-12T11:52:34.823Z,-1.11
2023-01-12T11:56:08.768Z,-1.09
2023-01-12T11:59:41.668Z,-0.99
2023-01-12T12:03:24.263Z,-0.88
2023-01-12T12:07:04.026Z,-0.82
2023-01-12T12:10:30.755Z,-0.80
2023-01-12T12:14:05.368Z,-0.86
2023-01-12T12:17:41.613Z,-0.98
2023-01-12T12:21:31.538Z,-0.97
2023-01-12T12:25:07.352Z,-0.91
2023-01-12T12:28:43.189Z,-0.91
2023-01-12T12:32:29.188Z,-1.04
2023-01-12T12:35:50.390Z,-1.08
2023-01-12T12:39:17.636Z,-1.11
2023-01-12T12:43:05.231Z,-1.17
2023-01-12T12:49:37.422Z,-1.08
2023-01-12T12:52:47.388Z,-1.16
2023-01-12T12:55:59.503Z,-1.19
2023-01-12T12:59:09.848Z,-1.17
2023-01-12T13:02:17.408Z,-1.18
2023-01-12T13:05:25.120Z,-1.26
2023-01-12T13:08:39.809Z,-1.32
2023-01-12T13:12:14.401Z,-1.36
2023-01-12T13:15:44.260Z,-1.35
2023-01-12T13:19:09.506Z,-1.29
2023-01-12T13:22:41.127Z,-1.28
2023-01-12T13:25:52.222Z,-1.35
2023-01-12T13:28:58.346Z,-1.49
2023-01-12T13:32:05.373Z,-1.52
2023-01-12T13:35:10.880Z,-1.46
2023-01-12T13:38:39.191Z,-1.38
2023-01-12T13:42:08.860Z,-1.46
2023-01-12T13:45:14.134Z,-1.46
2023-01-12T13:48:21.350Z,-1.50
2023-01-12T13:51:54.197Z,-1.55
2023-01-12T13:55:05.812Z,-1.57
2023-01-12T13:58:19.226Z,-1.57
2023-01-12T14:01:43.736Z,-1.58
2023-01-12T14:05:06.328Z,-1.60
2023-01-12T14:08:46.330Z,-1.67
2023-01-12T14:12:30.019Z,-1.67
2023-01-12T14:16:20.616Z,-1.63
2023-01-12T14:19:43.490Z,-1.62
2023-01-12T14:22:49.928Z,-1.67
2023-01-12T14:25:56.020Z,-1.63
2023-01-12T14:29:02.233Z,-1.60
2023-01-12T14:32:08.196Z,-1.55
2023-01-12T14:35:13.699Z,-1.52
2023-01-12T14:38:19.297Z,-1.55
2023-01-12T14:41:53.928Z,-1.58
2023-01-12T14:45:29.274Z,-1.57
2023-01-12T14:48:41.166Z,-1.57
2023-01-12T14:51:51.389Z,-1.60
2023-01-12T14:54:56.500Z,-1.61
2023-01-12T14:58:08.801Z,-1.52
2023-01-12T15:01:17.606Z,-1.47
2023-01-12T15:04:36.911Z,-1.48
2023-01-12T15:07:48.185Z,-1.65
2023-01-12T15:10:56.946Z,-1.76
2023-01-12T15:14:12.363Z,-1.83
2023-01-12T15:17:36.106Z,-1.83
2023-01-12T15:21:00.538Z,-1.84
2023-01-12T15:24:23.891Z,-1.72
2023-01-12T15:27:33.219Z,-1.73
2023-01-12T15:30:41.009Z,-1.70
2023-01-12T15:33:47.678Z,-1.71
2023-01-12T15:36:54.462Z,-1.63
2023-01-12T15:40:03.584Z,-1.59
2023-01-12T15:43:11.672Z,-1.59
2023-01-12T15:46:19.041Z,-1.56
2023-01-12T15:49:26.397Z,-1.64
2023-01-12T15:52:36.686Z,-1.67
2023-01-12T15:55:42.285Z,-1.68
2023-01-12T15:58:48.849Z,-1.63
2023-01-12T16:01:58.781Z,-1.62
2023-01-12T16:05:03.952Z,-1.62
2023-01-12T16:08:10.012Z,-1.59
2023-01-12T16:11:18.580Z,-1.58
2023-01-12T16:14:24.497Z,-1.56
2023-01-12T16:17:30.119Z,-1.50
2023-01-12T16:20:36.939Z,-1.52
2023-01-12T16:23:44.750Z,-1.59
2023-01-12T16:26:52.327Z,-1.63
2023-01-12T16:30:00.088Z,-1.65
2023-01-12T16:33:05.871Z,-1.73
2023-01-12T16:36:14.369Z,-1.79
2023-01-12T16:39:20.137Z,-1.83
2023-01-12T16:42:25.375Z,-1.87
2023-01-12T16:45:31.075Z,-1.92
2023-01-12T16:48:38.614Z,-1.91
2023-01-12T16:51:44.991Z,-1.89
2023-01-12T16:54:50.033Z,-1.82
2023-01-12T16:57:57.263Z,-1.70
2023-01-12T17:01:04.884Z,-1.70
2023-01-12T17:04:12.087Z,-1.77
2023-01-12T17:07:17.889Z,-1.77
2023-01-12T17:10:17.616Z,-1.75
2023-01-12T17:13:04.345Z,-1.80
2023-01-12T17:15:59.190Z,-1.85
2023-01-12T17:19:07.319Z,-1.87
2023-01-12T17:22:13.232Z,-1.83
2023-01-12T17:25:21.521Z,-1.72
2023-01-12T17:28:27.545Z,-1.67
2023-01-12T17:31:34.509Z,-1.68
2023-01-12T17:34:40.865Z,-1.66
2023-01-12T17:37:46.787Z,-1.60
2023-01-12T17:40:54.002Z,-1.54
2023-01-12T17:44:00.528Z,-1.54
2023-01-12T17:47:05.893Z,-1.56
2023-01-12T17:50:11.059Z,-1.55
2023-01-12T17:53:17.235Z,-1.59
2023-01-12T17:56:24.176Z,-1.68
2023-01-12T17:59:34.572Z,-1.80
2023-01-12T18:02:40.957Z,-1.85
2023-01-12T18:05:57.740Z,-1.91
2023-01-12T18:08:55.469Z,-1.90
2023-01-12T18:12:03.079Z,-1.86
2023-01-12T18:15:12.445Z,-1.84
2023-01-12T18:18:19.368Z,-1.84
2023-01-12T18:21:27.775Z,-1.81
2023-01-12T18:24:32.809Z,-1.70
2023-01-12T18:27:40.830Z,-1.61
2023-01-12T18:30:45.693Z,-1.54
2023-01-12T18:33:52.493Z,-1.41
2023-01-12T18:36:59.219Z,-1.36
2023-01-12T18:40:04.864Z,-1.33
2023-01-12T18:43:11.444Z,-1.41
2023-01-12T18:46:20.510Z,-1.44
2023-01-12T18:49:26.449Z,-1.56
2023-01-12T18:52:51.191Z,-1.59
2023-01-12T18:55:59.068Z,-1.52
2023-01-12T18:59:06.888Z,-1.54
2023-01-12T19:02:13.781Z,-1.56
2023-01-12T19:05:28.346Z,-1.46
2023-01-12T19:08:52.712Z,-1.35
2023-01-12T19:11:59.328Z,-1.31
2023-01-12T19:15:24.056Z,-1.32
2023-01-12T19:18:30.234Z,-1.27
2023-01-12T19:22:00.534Z,-1.20
2023-01-12T19:25:23.809Z,-1.18
2023-01-12T19:28:43.160Z,-1.21
2023-01-12T19:31:49.222Z,-1.19
2023-01-12T19:35:02.269Z,-1.30
2023-01-12T19:38:05.040Z,-1.35
2023-01-12T19:41:20.582Z,-1.36
2023-01-12T19:44:26.716Z,-1.37
2023-01-12T19:47:32.676Z,-1.34
2023-01-12T19:50:40.116Z,-1.35
2023-01-12T19:53:45.271Z,-1.40
2023-01-12T19:56:52.919Z,-1.46
2023-01-12T19:59:58.250Z,-1.44
2023-01-12T20:03:07.455Z,-1.40
2023-01-12T20:06:20.503Z,-1.35
2023-01-12T20:09:27.485Z,-1.33
2023-01-12T20:12:34.253Z,-1.33
2023-01-12T20:15:39.818Z,-1.30
2023-01-12T20:18:46.606Z,-1.39
2023-01-12T20:21:53.725Z,-1.41
2023-01-12T20:25:01.368Z,-1.40
2023-01-12T20:28:09.284Z,-1.35
2023-01-12T20:31:16.121Z,-1.25
2023-01-12T20:34:22.482Z,-1.21
2023-01-12T20:37:29.642Z,-1.22
2023-01-12T20:40:36.034Z,-1.32
2023-01-12T20:43:44.738Z,-1.44
2023-01-12T20:46:51.661Z,-1.46
2023-01-12T20:49:58.934Z,-1.48
2023-01-12T20:53:04.432Z,-1.49
2023-01-12T20:56:11.492Z,-1.52
2023-01-12T20:59:19.559Z,-1.49
2023-01-12T21:02:33.000Z,-1.46
2023-01-12T21:05:40.235Z,-1.41
2023-01-12T21:08:46.713Z,-1.34
2023-01-12T21:11:54.354Z,-1.30
2023-01-12T21:15:01.567Z,-1.24
2023-01-12T21:18:07.187Z,-1.23
2023-01-12T21:21:12.961Z,-1.25
2023-01-12T21:24:18.118Z,-1.23
2023-01-12T21:27:25.011Z,-1.19
2023-01-12T21:30:33.115Z,-1.17
2023-01-12T21:33:39.184Z,-1.16
2023-01-12T21:36:46.778Z,-1.12
2023-01-12T21:39:52.919Z,-1.10
2023-01-12T21:43:19.618Z,-1.16
2023-01-12T21:46:25.875Z,-1.22
2023-01-12T21:49:32.064Z,-1.34
2023-01-12T21:52:39.813Z,-1.37
2023-01-12T21:55:46.185Z,-1.40
2023-01-12T21:58:52.306Z,-1.46
2023-01-12T22:01:57.945Z,-1.55
2023-01-12T22:05:03.982Z,-1.58
2023-01-12T22:08:12.118Z,-1.60
2023-01-12T22:11:27.945Z,-1.57
2023-01-12T22:14:35.421Z,-1.56
2023-01-12T22:17:41.291Z,-1.52
2023-01-12T22:20:48.989Z,-1.50
2023-01-12T22:23:54.795Z,-1.56
2023-01-12T22:27:02.352Z,-1.63
2023-01-12T22:30:08.695Z,-1.65
2023-01-12T22:33:13.765Z,-1.68
2023-01-12T22:36:20.531Z,-1.71
2023-01-12T22:39:27.910Z,-1.70
2023-01-12T22:42:36.684Z,-1.66
2023-01-12T22:45:45.665Z,-1.65
2023-01-12T22:48:51.258Z,-1.55
2023-01-12T22:51:57.549Z,-1.49
2023-01-12T22:55:04.709Z,-1.49
2023-01-12T22:58:12.785Z,-1.53
2023-01-12T23:01:23.713Z,-1.54
2023-01-12T23:04:30.682Z,-1.57
2023-01-12T23:07:36.522Z,-1.54
2023-01-12T23:10:43.186Z,-1.52
2023-01-12T23:13:49.700Z,-1.53
2023-01-12T23:16:55.156Z,-1.46
2023-01-12T23:20:00.977Z,-1.36
2023-01-12T23:23:07.778Z,-1.30
2023-01-12T23:26:21.473Z,-1.26
2023-01-12T23:29:27.910Z,-1.17
2023-01-12T23:32:34.095Z,-1.08
2023-01-12T23:35:43.335Z,-1.05
2023-01-12T23:38:51.702Z,-0.96
2023-01-12T23:41:57.807Z,-0.89
2023-01-12T23:45:04.283Z,-0.95
2023-01-12T23:48:13.499Z,-0.99
2023-01-12T23:51:20.603Z,-1.04
2023-01-12T23:54:28.867Z,-1.11
2023-01-12T23:57:35.793Z,-1.17
